sensor_id;sensor_type;location;lat;lon;timestamp;pressure;altitude;pressure_sealevel;temperature;humidity
45040;BME280;30778;53.574;7.770;2023-05-29T00:02:07;102498.56;;;7.33;49.57
45040;BME280;30778;53.574;7.770;2023-05-29T00:04:32;102495.13;;;7.20;48.91
45040;BME280;30778;53.574;7.770;2023-05-29T00:06:58;102502.91;;;7.14;49.38
45040;BME280;30778;53.574;7.770;2023-05-29T00:09:23;102502.06;;;7.38;48.15
45040;BME280;30778;53.574;7.770;2023-05-29T00:11:50;102503.78;;;7.35;47.93
45040;BME280;30778;53.574;7.770;2023-05-29T00:14:20;102512.47;;;7.38;47.42
45040;BME280;30778;53.574;7.770;2023-05-29T00:16:50;102508.09;;;7.26;47.31
45040;BME280;30778;53.574;7.770;2023-05-29T00:19:16;102506.41;;;7.22;47.59
45040;BME280;30778;53.574;7.770;2023-05-29T00:21:42;102499.44;;;7.30;47.42
45040;BME280;30778;53.574;7.770;2023-05-29T00:24:08;102501.19;;;7.35;47.13
45040;BME280;30778;53.574;7.770;2023-05-29T00:26:34;102497.72;;;7.39;46.55
45040;BME280;30778;53.574;7.770;2023-05-29T00:29:00;102496.84;;;7.29;47.07
45040;BME280;30778;53.574;7.770;2023-05-29T00:31:25;102502.91;;;7.29;47.21
45040;BME280;30778;53.574;7.770;2023-05-29T00:33:51;102511.59;;;7.22;47.54
45040;BME280;30778;53.574;7.770;2023-05-29T00:36:17;102510.72;;;7.20;47.42
45040;BME280;30778;53.574;7.770;2023-05-29T00:38:43;102515.03;;;7.06;47.85
45040;BME280;30778;53.574;7.770;2023-05-29T00:41:13;102518.50;;;7.26;47.65
45040;BME280;30778;53.574;7.770;2023-05-29T00:43:40;102522.84;;;7.35;47.27
45040;BME280;30778;53.574;7.770;2023-05-29T00:46:06;102522.88;;;7.38;47.51
45040;BME280;30778;53.574;7.770;2023-05-29T00:48:31;102521.97;;;7.35;47.43
45040;BME280;30778;53.574;7.770;2023-05-29T00:50:57;102514.19;;;7.41;47.68
45040;BME280;30778;53.574;7.770;2023-05-29T00:53:23;102515.06;;;7.38;47.37
45040;BME280;30778;53.574;7.770;2023-05-29T00:55:48;102515.91;;;7.48;47.59
45040;BME280;30778;53.574;7.770;2023-05-29T00:58:15;102519.38;;;7.50;47.21
45040;BME280;30778;53.574;7.770;2023-05-29T01:00:40;102510.69;;;7.42;47.26
45040;BME280;30778;53.574;7.770;2023-05-29T01:03:06;102510.72;;;7.09;48.13
45040;BME280;30778;53.574;7.770;2023-05-29T01:05:34;102508.13;;;7.19;48.20
45040;BME280;30778;53.574;7.770;2023-05-29T01:08:01;102503.78;;;7.18;48.58
45040;BME280;30778;53.574;7.770;2023-05-29T01:10:27;102509.84;;;7.15;48.44
45040;BME280;30778;53.574;7.770;2023-05-29T01:13:03;102518.50;;;7.14;48.44
45040;BME280;30778;53.574;7.770;2023-05-29T01:15:54;102521.97;;;7.39;47.87
45040;BME280;30778;53.574;7.770;2023-05-29T01:21:34;102523.72;;;7.26;48.49
45040;BME280;30778;53.574;7.770;2023-05-29T01:26:52;102516.78;;;7.62;47.48
45040;BME280;30778;53.574;7.770;2023-05-29T01:29:29;102516.78;;;7.65;47.30
45040;BME280;30778;53.574;7.770;2023-05-29T01:31:58;102510.69;;;7.79;47.27
45040;BME280;30778;53.574;7.770;2023-05-29T01:34:24;102523.72;;;7.85;46.77
45040;BME280;30778;53.574;7.770;2023-05-29T01:36:50;102518.50;;;7.82;47.00
45040;BME280;30778;53.574;7.770;2023-05-29T01:39:15;102531.53;;;7.74;47.08
45040;BME280;30778;53.574;7.770;2023-05-29T01:41:43;102535.84;;;7.69;47.34
45040;BME280;30778;53.574;7.770;2023-05-29T01:44:10;102528.06;;;7.78;46.94
45040;BME280;30778;53.574;7.770;2023-05-29T01:46:39;102531.56;;;7.60;47.41
45040;BME280;30778;53.574;7.770;2023-05-29T01:49:06;102532.38;;;7.78;47.21
45040;BME280;30778;53.574;7.770;2023-05-29T01:51:33;102532.41;;;7.74;47.23
45040;BME280;30778;53.574;7.770;2023-05-29T01:53:59;102540.22;;;7.76;47.33
45040;BME280;30778;53.574;7.770;2023-05-29T01:56:26;102531.50;;;7.77;47.13
45040;BME280;30778;53.574;7.770;2023-05-29T01:58:54;102529.78;;;7.84;47.40
45040;BME280;30778;53.574;7.770;2023-05-29T02:01:21;102536.72;;;7.79;47.32
45040;BME280;30778;53.574;7.770;2023-05-29T02:03:47;102538.47;;;7.83;47.36
45040;BME280;30778;53.574;7.770;2023-05-29T02:06:12;102530.59;;;7.95;47.58
45040;BME280;30778;53.574;7.770;2023-05-29T02:08:38;102534.06;;;8.09;46.80
45040;BME280;30778;53.574;7.770;2023-05-29T02:11:03;102526.25;;;8.08;47.01
45040;BME280;30778;53.574;7.770;2023-05-29T02:13:29;102529.72;;;8.05;47.29
45040;BME280;30778;53.574;7.770;2023-05-29T02:15:55;102532.31;;;8.05;47.19
45040;BME280;30778;53.574;7.770;2023-05-29T02:18:22;102533.22;;;8.03;47.00
45040;BME280;30778;53.574;7.770;2023-05-29T02:20:47;102533.19;;;8.12;46.89
45040;BME280;30778;53.574;7.770;2023-05-29T02:23:20;102537.47;;;8.18;46.94
45040;BME280;30778;53.574;7.770;2023-05-29T02:25:46;102535.72;;;8.24;47.08
45040;BME280;30778;53.574;7.770;2023-05-29T02:28:12;102538.31;;;8.24;46.71
45040;BME280;30778;53.574;7.770;2023-05-29T02:30:38;102529.63;;;8.27;46.69
45040;BME280;30778;53.574;7.770;2023-05-29T02:33:04;102532.25;;;8.27;46.41
45040;BME280;30778;53.574;7.770;2023-05-29T02:35:33;102525.34;;;8.23;46.53
45040;BME280;30778;53.574;7.770;2023-05-29T02:37:58;102521.84;;;8.24;46.49
45040;BME280;30778;53.574;7.770;2023-05-29T02:40:24;102520.94;;;8.34;46.27
45040;BME280;30778;53.574;7.770;2023-05-29T02:42:50;102516.63;;;8.30;46.18
45040;BME280;30778;53.574;7.770;2023-05-29T02:45:16;102511.47;;;8.16;46.26
45040;BME280;30778;53.574;7.770;2023-05-29T02:47:41;102514.88;;;8.26;46.40
45040;BME280;30778;53.574;7.770;2023-05-29T02:50:07;102519.25;;;8.25;46.49
45040;BME280;30778;53.574;7.770;2023-05-29T02:52:33;102510.56;;;8.22;46.00
45040;BME280;30778;53.574;7.770;2023-05-29T02:54:59;102502.78;;;8.14;45.80
45040;BME280;30778;53.574;7.770;2023-05-29T02:57:25;102498.47;;;8.05;46.43
45040;BME280;30778;53.574;7.770;2023-05-29T02:59:51;102514.94;;;8.04;46.82
45040;BME280;30778;53.574;7.770;2023-05-29T03:02:17;102514.97;;;7.95;46.90
45040;BME280;30778;53.574;7.770;2023-05-29T03:04:44;102526.25;;;8.05;46.38
45040;BME280;30778;53.574;7.770;2023-05-29T03:07:11;102525.41;;;7.98;46.50
45040;BME280;30778;53.574;7.770;2023-05-29T03:09:38;102521.94;;;7.90;46.98
45040;BME280;30778;53.574;7.770;2023-05-29T03:12:04;102518.47;;;7.94;46.67
45040;BME280;30778;53.574;7.770;2023-05-29T03:14:30;102523.66;;;7.97;46.68
45040;BME280;30778;53.574;7.770;2023-05-29T03:17:04;102529.75;;;7.94;46.75
45040;BME280;30778;53.574;7.770;2023-05-29T03:19:30;102528.84;;;8.06;46.64
45040;BME280;30778;53.574;7.770;2023-05-29T03:21:56;102528.78;;;8.20;46.35
45040;BME280;30778;53.574;7.770;2023-05-29T03:24:21;102524.47;;;8.13;45.94
45040;BME280;30778;53.574;7.770;2023-05-29T03:26:49;102528.84;;;8.12;45.73
45040;BME280;30778;53.574;7.770;2023-05-29T03:29:17;102541.00;;;8.04;46.21
45040;BME280;30778;53.574;7.770;2023-05-29T03:31:43;102539.28;;;8.09;46.38
45040;BME280;30778;53.574;7.770;2023-05-29T03:34:11;102534.94;;;8.11;46.10
45040;BME280;30778;53.574;7.770;2023-05-29T03:36:41;102529.66;;;8.24;45.92
45040;BME280;30778;53.574;7.770;2023-05-29T03:39:07;102533.97;;;8.31;45.58
45040;BME280;30778;53.574;7.770;2023-05-29T03:41:32;102532.31;;;8.11;46.31
45040;BME280;30778;53.574;7.770;2023-05-29T03:43:58;102528.75;;;8.34;45.77
45040;BME280;30778;53.574;7.770;2023-05-29T03:46:27;102538.34;;;8.20;46.08
45040;BME280;30778;53.574;7.770;2023-05-29T03:48:52;102536.59;;;8.23;45.50
45040;BME280;30778;53.574;7.770;2023-05-29T03:51:18;102530.47;;;8.35;45.80
45040;BME280;30778;53.574;7.770;2023-05-29T03:53:44;102531.34;;;8.37;45.65
45040;BME280;30778;53.574;7.770;2023-05-29T03:56:09;102523.63;;;8.14;46.05
45040;BME280;30778;53.574;7.770;2023-05-29T03:58:35;102525.22;;;8.47;45.43
45040;BME280;30778;53.574;7.770;2023-05-29T04:01:02;102538.22;;;8.50;45.17
45040;BME280;30778;53.574;7.770;2023-05-29T04:03:29;102539.13;;;8.48;45.23
45040;BME280;30778;53.574;7.770;2023-05-29T04:05:55;102535.66;;;8.41;45.33
45040;BME280;30778;53.574;7.770;2023-05-29T04:08:21;102546.09;;;8.41;45.36
45040;BME280;30778;53.574;7.770;2023-05-29T04:10:46;102546.13;;;8.32;45.46
45040;BME280;30778;53.574;7.770;2023-05-29T04:13:12;102544.38;;;8.34;45.06
45040;BME280;30778;53.574;7.770;2023-05-29T04:15:38;102550.47;;;8.28;45.00
45040;BME280;30778;53.574;7.770;2023-05-29T04:18:03;102542.75;;;8.11;45.10
45040;BME280;30778;53.574;7.770;2023-05-29T04:20:29;102548.66;;;8.49;44.42
45040;BME280;30778;53.574;7.770;2023-05-29T04:22:54;102553.91;;;8.33;44.74
45040;BME280;30778;53.574;7.770;2023-05-29T04:25:20;102553.00;;;8.50;44.40
45040;BME280;30778;53.574;7.770;2023-05-29T04:27:45;102560.72;;;8.71;43.00
45040;BME280;30778;53.574;7.770;2023-05-29T04:30:18;102556.34;;;8.81;43.35
45040;BME280;30778;53.574;7.770;2023-05-29T04:32:46;102561.56;;;8.78;43.42
45040;BME280;30778;53.574;7.770;2023-05-29T04:35:12;102566.81;;;8.75;43.14
45040;BME280;30778;53.574;7.770;2023-05-29T04:37:44;102561.63;;;8.60;43.60
45040;BME280;30778;53.574;7.770;2023-05-29T04:40:10;102564.19;;;8.69;43.59
45040;BME280;30778;53.574;7.770;2023-05-29T04:42:36;102552.84;;;8.82;43.34
45040;BME280;30778;53.574;7.770;2023-05-29T04:45:03;102555.34;;;9.01;43.18
45040;BME280;30778;53.574;7.770;2023-05-29T04:47:34;102560.69;;;8.81;43.66
45040;BME280;30778;53.574;7.770;2023-05-29T04:50:02;102559.81;;;8.80;43.78
45040;BME280;30778;53.574;7.770;2023-05-29T04:52:27;102564.94;;;8.98;43.27
45040;BME280;30778;53.574;7.770;2023-05-29T04:54:54;102564.91;;;9.02;42.40
45040;BME280;30778;53.574;7.770;2023-05-29T04:57:20;102567.50;;;9.08;42.87
45040;BME280;30778;53.574;7.770;2023-05-29T04:59:47;102572.75;;;9.00;42.43
45040;BME280;30778;53.574;7.770;2023-05-29T05:02:13;102563.97;;;9.12;42.06
45040;BME280;30778;53.574;7.770;2023-05-29T05:04:38;102563.25;;;8.88;43.03
45040;BME280;30778;53.574;7.770;2023-05-29T05:07:05;102575.09;;;9.37;42.30
45040;BME280;30778;53.574;7.770;2023-05-29T05:09:31;102568.84;;;9.58;41.41
45040;BME280;30778;53.574;7.770;2023-05-29T05:11:57;102569.66;;;9.63;41.63
45040;BME280;30778;53.574;7.770;2023-05-29T05:14:23;102567.78;;;9.77;41.47
45040;BME280;30778;53.574;7.770;2023-05-29T05:16:50;102565.31;;;9.62;41.32
45040;BME280;30778;53.574;7.770;2023-05-29T05:19:16;102574.59;;;9.97;40.60
45040;BME280;30778;53.574;7.770;2023-05-29T05:21:43;102570.19;;;10.02;40.87
45040;BME280;30778;53.574;7.770;2023-05-29T05:24:08;102572.56;;;10.24;40.77
45040;BME280;30778;53.574;7.770;2023-05-29T05:26:38;102574.53;;;11.35;38.92
45040;BME280;30778;53.574;7.770;2023-05-29T05:29:03;102561.94;;;12.06;36.80
45040;BME280;30778;53.574;7.770;2023-05-29T05:31:31;102563.50;;;12.17;35.89
45040;BME280;30778;53.574;7.770;2023-05-29T05:33:57;102568.97;;;11.55;37.07
45040;BME280;30778;53.574;7.770;2023-05-29T05:36:23;102569.75;;;11.05;38.04
45040;BME280;30778;53.574;7.770;2023-05-29T05:38:54;102562.59;;;11.71;37.10
45040;BME280;30778;53.574;7.770;2023-05-29T05:41:21;102570.63;;;12.10;36.83
45040;BME280;30778;53.574;7.770;2023-05-29T05:43:47;102562.91;;;12.46;35.63
45040;BME280;30778;53.574;7.770;2023-05-29T05:46:30;102572.88;;;12.28;36.04
45040;BME280;30778;53.574;7.770;2023-05-29T05:48:56;102572.88;;;12.70;35.56
45040;BME280;30778;53.574;7.770;2023-05-29T05:51:26;102569.25;;;12.36;36.00
45040;BME280;30778;53.574;7.770;2023-05-29T05:53:53;102574.06;;;12.12;36.84
45040;BME280;30778;53.574;7.770;2023-05-29T05:56:24;102574.69;;;11.77;37.13
45040;BME280;30778;53.574;7.770;2023-05-29T05:58:51;102564.28;;;11.74;36.43
45040;BME280;30778;53.574;7.770;2023-05-29T06:01:20;102578.00;;;11.88;36.31
45040;BME280;30778;53.574;7.770;2023-05-29T06:03:47;102585.28;;;11.71;36.62
45040;BME280;30778;53.574;7.770;2023-05-29T06:06:13;102586.69;;;11.92;35.87
45040;BME280;30778;53.574;7.770;2023-05-29T06:08:41;102595.59;;;11.81;36.17
45040;BME280;30778;53.574;7.770;2023-05-29T06:11:08;102596.06;;;11.52;37.11
45040;BME280;30778;53.574;7.770;2023-05-29T06:13:36;102597.72;;;12.09;36.21
45040;BME280;30778;53.574;7.770;2023-05-29T06:16:07;102602.56;;;11.28;37.17
45040;BME280;30778;53.574;7.770;2023-05-29T06:18:34;102611.78;;;11.54;37.17
45040;BME280;30778;53.574;7.770;2023-05-29T06:21:01;102606.22;;;11.72;36.27
45040;BME280;30778;53.574;7.770;2023-05-29T06:23:29;102613.28;;;12.18;36.73
45040;BME280;30778;53.574;7.770;2023-05-29T06:25:56;102607.00;;;12.70;34.70
45040;BME280;30778;53.574;7.770;2023-05-29T06:28:22;102608.50;;;13.91;33.38
45040;BME280;30778;53.574;7.770;2023-05-29T06:30:49;102609.41;;;14.23;32.59
45040;BME280;30778;53.574;7.770;2023-05-29T06:33:15;102616.13;;;13.32;34.25
45040;BME280;30778;53.574;7.770;2023-05-29T06:35:41;102612.00;;;12.83;34.54
45040;BME280;30778;53.574;7.770;2023-05-29T06:38:08;102610.63;;;12.63;35.15
45040;BME280;30778;53.574;7.770;2023-05-29T06:40:34;102611.88;;;13.64;34.13
45040;BME280;30778;53.574;7.770;2023-05-29T06:43:00;102614.06;;;14.74;31.63
45040;BME280;30778;53.574;7.770;2023-05-29T06:45:38;102612.13;;;15.09;31.54
45040;BME280;30778;53.574;7.770;2023-05-29T06:48:03;102620.19;;;13.81;32.91
45040;BME280;30778;53.574;7.770;2023-05-29T06:50:29;102620.34;;;13.38;33.88
45040;BME280;30778;53.574;7.770;2023-05-29T06:52:59;102623.28;;;13.25;34.16
45040;BME280;30778;53.574;7.770;2023-05-29T06:55:27;102617.81;;;14.67;31.89
45040;BME280;30778;53.574;7.770;2023-05-29T06:57:55;102620.44;;;14.97;31.36
45040;BME280;30778;53.574;7.770;2023-05-29T07:00:22;102628.13;;;15.33;30.61
45040;BME280;30778;53.574;7.770;2023-05-29T07:02:59;102621.09;;;16.10;28.89
45040;BME280;30778;53.574;7.770;2023-05-29T07:05:26;102622.72;;;14.80;31.42
45040;BME280;30778;53.574;7.770;2023-05-29T07:07:52;102632.88;;;13.98;32.84
45040;BME280;30778;53.574;7.770;2023-05-29T07:10:19;102632.13;;;14.26;32.08
45040;BME280;30778;53.574;7.770;2023-05-29T07:12:45;102625.88;;;13.97;32.35
45040;BME280;30778;53.574;7.770;2023-05-29T07:15:11;102634.94;;;13.49;33.51
45040;BME280;30778;53.574;7.770;2023-05-29T07:17:38;102639.84;;;13.65;33.13
45040;BME280;30778;53.574;7.770;2023-05-29T07:20:13;102636.94;;;13.77;33.07
45040;BME280;30778;53.574;7.770;2023-05-29T07:22:41;102633.34;;;13.80;32.59
45040;BME280;30778;53.574;7.770;2023-05-29T07:25:08;102630.22;;;14.64;31.93
45040;BME280;30778;53.574;7.770;2023-05-29T07:27:34;102622.53;;;14.86;31.89
45040;BME280;30778;53.574;7.770;2023-05-29T07:30:01;102626.19;;;15.38;31.79
45040;BME280;30778;53.574;7.770;2023-05-29T07:32:29;102626.47;;;15.29;32.35
45040;BME280;30778;53.574;7.770;2023-05-29T07:34:55;102623.09;;;15.52;32.17
45040;BME280;30778;53.574;7.770;2023-05-29T07:37:22;102629.84;;;15.32;31.37
45040;BME280;30778;53.574;7.770;2023-05-29T07:39:47;102636.75;;;13.47;34.02
45040;BME280;30778;53.574;7.770;2023-05-29T07:42:32;102626.38;;;13.79;33.61
45040;BME280;30778;53.574;7.770;2023-05-29T07:44:58;102634.53;;;13.68;33.81
45040;BME280;30778;53.574;7.770;2023-05-29T07:47:24;102642.16;;;13.41;34.63
45040;BME280;30778;53.574;7.770;2023-05-29T07:49:50;102637.03;;;14.38;32.97
45040;BME280;30778;53.574;7.770;2023-05-29T07:52:19;102650.13;;;13.74;33.73
45040;BME280;30778;53.574;7.770;2023-05-29T07:54:45;102649.19;;;13.41;34.42
45040;BME280;30778;53.574;7.770;2023-05-29T07:57:12;102641.50;;;15.25;31.84
45040;BME280;30778;53.574;7.770;2023-05-29T07:59:41;102636.81;;;16.38;29.77
45040;BME280;30778;53.574;7.770;2023-05-29T08:02:08;102654.81;;;16.74;29.19
45040;BME280;30778;53.574;7.770;2023-05-29T08:05:08;102646.00;;;16.75;28.85
45040;BME280;30778;53.574;7.770;2023-05-29T08:07:36;102636.66;;;16.41;30.16
45040;BME280;30778;53.574;7.770;2023-05-29T08:10:02;102650.88;;;15.62;31.12
45040;BME280;30778;53.574;7.770;2023-05-29T08:12:28;102650.34;;;14.65;32.51
45040;BME280;30778;53.574;7.770;2023-05-29T08:14:56;102647.81;;;16.01;30.26
45040;BME280;30778;53.574;7.770;2023-05-29T08:17:22;102652.22;;;16.00;30.26
45040;BME280;30778;53.574;7.770;2023-05-29T08:19:47;102652.66;;;14.75;32.14
45040;BME280;30778;53.574;7.770;2023-05-29T08:22:14;102654.44;;;14.11;32.86
45040;BME280;30778;53.574;7.770;2023-05-29T08:24:40;102658.66;;;15.10;31.62
45040;BME280;30778;53.574;7.770;2023-05-29T08:27:06;102665.50;;;15.97;30.12
45040;BME280;30778;53.574;7.770;2023-05-29T08:29:32;102652.25;;;17.18;29.46
45040;BME280;30778;53.574;7.770;2023-05-29T08:31:58;102647.88;;;17.61;28.08
45040;BME280;30778;53.574;7.770;2023-05-29T08:34:23;102660.16;;;15.99;29.89
45040;BME280;30778;53.574;7.770;2023-05-29T08:36:49;102675.00;;;14.61;31.60
45040;BME280;30778;53.574;7.770;2023-05-29T08:39:17;102670.44;;;13.30;34.53
45040;BME280;30778;53.574;7.770;2023-05-29T08:41:51;102667.06;;;14.31;33.06
45040;BME280;30778;53.574;7.770;2023-05-29T08:44:21;102660.22;;;16.71;30.12
45040;BME280;30778;53.574;7.770;2023-05-29T08:46:50;102666.13;;;16.54;30.00
45040;BME280;30778;53.574;7.770;2023-05-29T08:49:19;102661.59;;;15.00;31.73
45040;BME280;30778;53.574;7.770;2023-05-29T08:52:00;102673.84;;;16.10;30.26
45040;BME280;30778;53.574;7.770;2023-05-29T08:54:31;102661.03;;;17.19;28.96
45040;BME280;30778;53.574;7.770;2023-05-29T08:56:56;102654.72;;;17.67;28.23
45040;BME280;30778;53.574;7.770;2023-05-29T08:59:23;102648.25;;;18.14;28.32
45040;BME280;30778;53.574;7.770;2023-05-29T09:01:50;102658.34;;;17.85;27.53
45040;BME280;30778;53.574;7.770;2023-05-29T09:04:15;102647.63;;;17.68;27.87
45040;BME280;30778;53.574;7.770;2023-05-29T09:06:42;102665.66;;;17.36;28.79
45040;BME280;30778;53.574;7.770;2023-05-29T09:09:08;102669.34;;;17.96;27.76
45040;BME280;30778;53.574;7.770;2023-05-29T09:11:35;102671.53;;;16.26;29.94
45040;BME280;30778;53.574;7.770;2023-05-29T09:14:02;102673.94;;;15.82;30.71
45040;BME280;30778;53.574;7.770;2023-05-29T09:16:28;102673.59;;;15.91;30.91
45040;BME280;30778;53.574;7.770;2023-05-29T09:19:05;102669.97;;;16.46;29.90
45040;BME280;30778;53.574;7.770;2023-05-29T09:21:32;102672.38;;;16.52;30.20
45040;BME280;30778;53.574;7.770;2023-05-29T09:24:04;102668.19;;;17.61;28.06
45040;BME280;30778;53.574;7.770;2023-05-29T09:26:31;102656.78;;;16.69;29.36
45040;BME280;30778;53.574;7.770;2023-05-29T09:28:58;102664.78;;;15.92;31.30
45040;BME280;30778;53.574;7.770;2023-05-29T09:31:23;102665.00;;;15.59;30.88
45040;BME280;30778;53.574;7.770;2023-05-29T09:33:50;102662.16;;;15.66;31.87
45040;BME280;30778;53.574;7.770;2023-05-29T09:36:22;102674.50;;;15.64;31.99
45040;BME280;30778;53.574;7.770;2023-05-29T09:38:48;102680.28;;;15.22;31.90
45040;BME280;30778;53.574;7.770;2023-05-29T09:41:20;102673.19;;;14.63;33.18
45040;BME280;30778;53.574;7.770;2023-05-29T09:43:48;102677.78;;;14.56;33.32
45040;BME280;30778;53.574;7.770;2023-05-29T09:46:15;102673.88;;;14.38;33.45
45040;BME280;30778;53.574;7.770;2023-05-29T09:48:42;102671.34;;;14.96;32.23
45040;BME280;30778;53.574;7.770;2023-05-29T09:51:19;102671.53;;;15.48;32.34
45040;BME280;30778;53.574;7.770;2023-05-29T09:53:45;102663.63;;;16.01;31.70
45040;BME280;30778;53.574;7.770;2023-05-29T09:56:12;102668.31;;;16.18;31.57
45040;BME280;30778;53.574;7.770;2023-05-29T09:58:42;102659.53;;;16.42;30.44
45040;BME280;30778;53.574;7.770;2023-05-29T10:01:12;102667.50;;;16.41;30.91
45040;BME280;30778;53.574;7.770;2023-05-29T10:03:38;102669.09;;;15.68;31.96
45040;BME280;30778;53.574;7.770;2023-05-29T10:06:05;102669.97;;;15.42;31.50
45040;BME280;30778;53.574;7.770;2023-05-29T10:08:37;102673.19;;;15.50;31.43
45040;BME280;30778;53.574;7.770;2023-05-29T10:11:05;102678.25;;;15.00;33.17
45040;BME280;30778;53.574;7.770;2023-05-29T10:13:38;102672.25;;;15.25;32.75
45040;BME280;30778;53.574;7.770;2023-05-29T10:16:11;102673.38;;;15.16;32.27
45040;BME280;30778;53.574;7.770;2023-05-29T10:18:44;102674.44;;;15.67;31.83
45040;BME280;30778;53.574;7.770;2023-05-29T10:21:15;102671.78;;;15.93;31.38
45040;BME280;30778;53.574;7.770;2023-05-29T10:23:47;102661.16;;;15.70;32.30
45040;BME280;30778;53.574;7.770;2023-05-29T10:26:18;102673.16;;;15.52;32.61
45040;BME280;30778;53.574;7.770;2023-05-29T10:28:58;102676.16;;;15.68;31.60
45040;BME280;30778;53.574;7.770;2023-05-29T10:31:35;102675.63;;;15.56;32.72
45040;BME280;30778;53.574;7.770;2023-05-29T10:34:36;102657.50;;;15.47;32.36
45040;BME280;30778;53.574;7.770;2023-05-29T10:37:12;102657.19;;;15.56;31.14
45040;BME280;30778;53.574;7.770;2023-05-29T10:39:43;102656.97;;;15.89;31.18
45040;BME280;30778;53.574;7.770;2023-05-29T10:42:41;102655.56;;;15.52;31.70
45040;BME280;30778;53.574;7.770;2023-05-29T10:45:08;102654.03;;;15.45;31.60
45040;BME280;30778;53.574;7.770;2023-05-29T10:47:34;102650.03;;;15.33;32.60
45040;BME280;30778;53.574;7.770;2023-05-29T10:50:01;102667.00;;;15.79;32.28
45040;BME280;30778;53.574;7.770;2023-05-29T10:52:33;102660.75;;;15.55;32.29
45040;BME280;30778;53.574;7.770;2023-05-29T10:54:59;102662.75;;;15.47;31.19
45040;BME280;30778;53.574;7.770;2023-05-29T10:57:25;102655.81;;;15.71;31.33
45040;BME280;30778;53.574;7.770;2023-05-29T11:00:04;102667.25;;;15.70;31.23
45040;BME280;30778;53.574;7.770;2023-05-29T11:02:38;102666.25;;;15.74;31.20
45040;BME280;30778;53.574;7.770;2023-05-29T11:05:05;102662.66;;;15.50;31.35
45040;BME280;30778;53.574;7.770;2023-05-29T11:07:32;102668.22;;;15.13;32.15
45040;BME280;30778;53.574;7.770;2023-05-29T11:10:11;102663.25;;;15.32;31.21
45040;BME280;30778;53.574;7.770;2023-05-29T11:12:57;102661.84;;;15.75;31.78
45040;BME280;30778;53.574;7.770;2023-05-29T11:15:23;102673.22;;;16.04;32.50
45040;BME280;30778;53.574;7.770;2023-05-29T11:17:49;102665.94;;;15.30;32.58
45040;BME280;30778;53.574;7.770;2023-05-29T11:20:17;102668.97;;;15.16;32.94
45040;BME280;30778;53.574;7.770;2023-05-29T11:25:13;102672.03;;;16.12;31.63
45040;BME280;30778;53.574;7.770;2023-05-29T11:27:44;102663.78;;;16.21;31.16
45040;BME280;30778;53.574;7.770;2023-05-29T11:30:10;102668.06;;;15.99;30.98
45040;BME280;30778;53.574;7.770;2023-05-29T11:32:36;102664.03;;;15.35;31.68
45040;BME280;30778;53.574;7.770;2023-05-29T11:35:09;102664.09;;;15.32;32.12
45040;BME280;30778;53.574;7.770;2023-05-29T11:37:37;102659.72;;;15.33;31.93
45040;BME280;30778;53.574;7.770;2023-05-29T11:40:07;102669.31;;;15.89;31.33
45040;BME280;30778;53.574;7.770;2023-05-29T11:42:41;102664.06;;;16.14;30.71
45040;BME280;30778;53.574;7.770;2023-05-29T11:45:12;102662.94;;;15.41;31.87
45040;BME280;30778;53.574;7.770;2023-05-29T11:47:55;102661.84;;;16.02;31.13
45040;BME280;30778;53.574;7.770;2023-05-29T11:50:22;102655.22;;;16.15;30.73
45040;BME280;30778;53.574;7.770;2023-05-29T11:52:48;102668.66;;;15.55;32.15
45040;BME280;30778;53.574;7.770;2023-05-29T11:55:14;102664.78;;;15.39;32.48
45040;BME280;30778;53.574;7.770;2023-05-29T11:57:40;102661.25;;;15.40;31.49
45040;BME280;30778;53.574;7.770;2023-05-29T12:00:06;102664.78;;;15.92;30.71
45040;BME280;30778;53.574;7.770;2023-05-29T12:02:33;102667.94;;;15.50;30.92
45040;BME280;30778;53.574;7.770;2023-05-29T12:05:05;102673.16;;;15.24;31.54
45040;BME280;30778;53.574;7.770;2023-05-29T12:07:33;102674.94;;;15.78;32.67
45040;BME280;30778;53.574;7.770;2023-05-29T12:10:15;102677.22;;;15.62;31.92
45040;BME280;30778;53.574;7.770;2023-05-29T12:12:43;102678.31;;;15.28;32.61
45040;BME280;30778;53.574;7.770;2023-05-29T12:15:12;102672.38;;;15.22;33.09
45040;BME280;30778;53.574;7.770;2023-05-29T12:17:40;102670.53;;;15.24;32.70
45040;BME280;30778;53.574;7.770;2023-05-29T12:20:06;102672.41;;;15.48;31.87
45040;BME280;30778;53.574;7.770;2023-05-29T12:22:35;102666.97;;;16.06;31.25
45040;BME280;30778;53.574;7.770;2023-05-29T12:25:09;102663.19;;;16.38;31.52
45040;BME280;30778;53.574;7.770;2023-05-29T12:27:35;102664.09;;;16.37;30.37
45040;BME280;30778;53.574;7.770;2023-05-29T12:30:07;102665.41;;;16.00;31.17
45040;BME280;30778;53.574;7.770;2023-05-29T12:32:38;102664.06;;;16.14;28.91
45040;BME280;30778;53.574;7.770;2023-05-29T12:37:35;102674.50;;;15.90;31.15
45040;BME280;30778;53.574;7.770;2023-05-29T12:40:17;102669.34;;;15.61;32.47
45040;BME280;30778;53.574;7.770;2023-05-29T12:42:43;102677.25;;;15.61;32.24
45040;BME280;30778;53.574;7.770;2023-05-29T12:45:08;102678.06;;;15.63;31.62
45040;BME280;30778;53.574;7.770;2023-05-29T12:47:36;102675.41;;;15.64;30.91
45040;BME280;30778;53.574;7.770;2023-05-29T12:50:25;102668.13;;;15.97;30.04
45040;BME280;30778;53.574;7.770;2023-05-29T12:52:58;102661.03;;;15.99;30.54
45040;BME280;30778;53.574;7.770;2023-05-29T12:55:25;102663.53;;;16.29;30.09
45040;BME280;30778;53.574;7.770;2023-05-29T12:57:51;102673.31;;;16.26;31.21
45040;BME280;30778;53.574;7.770;2023-05-29T13:00:19;102667.34;;;16.20;31.78
45040;BME280;30778;53.574;7.770;2023-05-29T13:02:46;102658.06;;;16.34;29.39
45040;BME280;30778;53.574;7.770;2023-05-29T13:05:12;102660.75;;;16.09;30.54
45040;BME280;30778;53.574;7.770;2023-05-29T13:07:38;102659.31;;;16.24;31.10
45040;BME280;30778;53.574;7.770;2023-05-29T13:10:04;102655.94;;;16.20;30.24
45040;BME280;30778;53.574;7.770;2023-05-29T13:12:30;102657.28;;;16.55;29.04